createdAt,value
2018-08-08T00:01:32.593Z,2.10
2018-08-08T00:04:00.141Z,2.30
2018-08-08T00:06:27.941Z,2.60
2018-08-08T00:08:55.501Z,2.30
2018-08-08T00:11:23.080Z,2.23
2018-08-08T00:13:50.944Z,2.30
2018-08-08T00:16:18.522Z,2.17
2018-08-08T00:18:46.350Z,2.17
2018-08-08T00:21:14.241Z,2.37
2018-08-08T00:23:41.768Z,2.27
2018-08-08T00:26:09.330Z,2.20
2018-08-08T00:28:37.247Z,1.77
2018-08-08T00:31:04.993Z,2.07
2018-08-08T00:33:32.546Z,2.30
2018-08-08T00:36:00.354Z,1.97
2018-08-08T00:38:27.897Z,1.80
2018-08-08T00:40:55.424Z,2.03
2018-08-08T00:43:23.381Z,1.70
2018-08-08T00:45:51.085Z,1.90
2018-08-08T00:48:18.644Z,2.00
2018-08-08T00:50:46.249Z,1.83
2018-08-08T00:53:13.879Z,2.07
2018-08-08T00:55:41.421Z,1.80
2018-08-08T00:58:08.948Z,1.70
2018-08-08T01:00:36.825Z,1.70
2018-08-08T01:03:05.772Z,1.90
2018-08-08T01:05:33.296Z,1.83
2018-08-08T01:08:00.904Z,1.73
2018-08-08T01:10:28.476Z,2.10
2018-08-08T01:12:56.036Z,2.00
2018-08-08T01:15:23.921Z,1.80
2018-08-08T01:17:51.222Z,2.00
2018-08-08T01:20:18.773Z,1.93
2018-08-08T01:22:46.644Z,2.27
2018-08-08T01:25:15.517Z,1.83
2018-08-08T01:27:43.544Z,1.80
2018-08-08T01:30:15.075Z,2.03
2018-08-08T01:32:42.700Z,2.10
2018-08-08T01:35:10.496Z,2.20
2018-08-08T01:37:38.201Z,2.40
2018-08-08T01:40:11.940Z,1.90
2018-08-08T01:42:40.465Z,2.20
2018-08-08T01:45:10.356Z,2.20
2018-08-08T01:47:38.412Z,2.10
2018-08-08T01:50:07.395Z,1.87
2018-08-08T01:52:35.327Z,2.13
2018-08-08T01:55:03.397Z,2.30
2018-08-08T01:57:30.885Z,2.43
2018-08-08T01:59:58.411Z,2.30
2018-08-08T02:02:26.205Z,2.60
2018-08-08T02:04:53.763Z,2.70
2018-08-08T02:07:21.536Z,2.67
2018-08-08T02:09:49.141Z,2.27
2018-08-08T02:12:16.710Z,2.37
2018-08-08T02:14:44.553Z,3.23
2018-08-08T02:17:12.122Z,2.43
2018-08-08T02:19:39.933Z,2.97
2018-08-08T02:22:07.764Z,2.80
2018-08-08T02:24:35.306Z,2.77
2018-08-08T02:27:02.922Z,2.80
2018-08-08T02:29:30.848Z,2.53
2018-08-08T02:31:58.401Z,2.83
2018-08-08T02:34:25.965Z,3.17
2018-08-08T02:36:53.623Z,2.80
2018-08-08T02:39:21.165Z,3.07
2018-08-08T02:41:48.721Z,3.40
2018-08-08T02:44:16.439Z,3.60
2018-08-08T02:46:43.967Z,3.63
2018-08-08T02:49:11.538Z,3.17
2018-08-08T02:51:39.272Z,3.47
2018-08-08T02:54:06.869Z,3.47
2018-08-08T02:56:34.793Z,3.60
2018-08-08T02:59:02.349Z,3.90
2018-08-08T03:01:29.874Z,3.37
2018-08-08T03:03:57.588Z,3.33
2018-08-08T03:06:25.110Z,3.97
2018-08-08T03:08:52.884Z,4.13
2018-08-08T03:11:20.434Z,3.27
2018-08-08T03:13:48.014Z,3.50
2018-08-08T03:16:15.927Z,4.10
2018-08-08T03:18:43.503Z,4.27
2018-08-08T03:21:11.455Z,3.70
2018-08-08T03:23:39.232Z,3.63
2018-08-08T03:26:07.120Z,3.27
2018-08-08T03:28:34.982Z,3.33
2018-08-08T03:31:02.555Z,3.80
2018-08-08T03:33:30.133Z,3.37
2018-08-08T03:35:57.968Z,3.67
2018-08-08T03:38:25.533Z,4.00
2018-08-08T03:40:53.415Z,3.67
2018-08-08T03:43:20.970Z,3.70
2018-08-08T03:45:48.513Z,4.03
2018-08-08T03:48:16.410Z,3.83
2018-08-08T03:50:43.933Z,3.80
2018-08-08T03:53:11.503Z,4.03
2018-08-08T03:55:39.408Z,4.10
2018-08-08T03:58:06.996Z,4.10
2018-08-08T04:00:34.536Z,3.60
2018-08-08T04:03:02.553Z,3.80
2018-08-08T04:05:30.271Z,3.90
2018-08-08T04:07:57.864Z,4.10
2018-08-08T04:10:25.630Z,3.63
2018-08-08T04:12:53.165Z,3.97
2018-08-08T04:15:20.775Z,3.37
2018-08-08T04:17:48.633Z,3.80
2018-08-08T04:20:16.206Z,3.43
2018-08-08T04:22:44.297Z,3.47
2018-08-08T04:25:13.261Z,4.03
2018-08-08T04:27:40.973Z,3.70
2018-08-08T04:30:11.730Z,3.97
2018-08-08T04:32:39.882Z,4.30
2018-08-08T04:35:07.820Z,4.20
2018-08-08T04:37:35.544Z,4.33
2018-08-08T04:40:04.898Z,3.97
2018-08-08T04:42:32.541Z,3.90
2018-08-08T04:45:00.079Z,3.83
2018-08-08T04:47:27.689Z,4.40
2018-08-08T04:49:55.313Z,4.07
2018-08-08T04:52:22.963Z,4.13
2018-08-08T04:54:50.798Z,3.90
2018-08-08T04:57:18.368Z,4.17
2018-08-08T04:59:46.000Z,4.27
2018-08-08T05:02:13.624Z,4.73
2018-08-08T05:04:41.165Z,4.13
2018-08-08T05:07:08.712Z,4.30
2018-08-08T05:09:36.495Z,4.37
2018-08-08T05:12:04.060Z,4.80
2018-08-08T05:14:31.605Z,4.60
2018-08-08T05:16:59.754Z,4.60
2018-08-08T05:19:27.355Z,4.87
2018-08-08T05:21:54.869Z,4.63
2018-08-08T05:24:23.384Z,4.77
2018-08-08T05:26:51.156Z,5.13
2018-08-08T05:29:18.893Z,4.57
2018-08-08T05:31:46.448Z,4.73
2018-08-08T05:34:14.020Z,5.13
2018-08-08T05:36:41.778Z,4.93
2018-08-08T05:39:11.639Z,4.27
2018-08-08T05:41:39.595Z,4.53
2018-08-08T05:44:07.409Z,4.53
2018-08-08T05:46:35.006Z,4.93
2018-08-08T05:49:02.587Z,4.47
2018-08-08T05:51:30.171Z,4.13
2018-08-08T05:53:57.798Z,4.27
2018-08-08T05:56:25.367Z,4.03
2018-08-08T05:58:52.900Z,4.40
2018-08-08T06:01:20.678Z,4.70
2018-08-08T06:03:48.494Z,4.27
2018-08-08T06:06:16.068Z,4.73
2018-08-08T06:08:43.748Z,4.50
2018-08-08T06:11:11.312Z,4.70
2018-08-08T06:13:38.912Z,4.57
2018-08-08T06:16:06.536Z,4.70
2018-08-08T06:18:34.502Z,4.80
2018-08-08T06:21:02.563Z,4.63
2018-08-08T06:23:30.110Z,4.43
2018-08-08T06:25:58.234Z,5.43
2018-08-08T06:28:26.153Z,5.20
2018-08-08T06:30:53.733Z,5.17
2018-08-08T06:33:21.578Z,4.83
2018-08-08T06:35:49.155Z,4.90
2018-08-08T06:38:16.817Z,5.43
2018-08-08T06:40:44.402Z,5.37
2018-08-08T06:43:11.962Z,5.60
2018-08-08T06:45:39.563Z,5.53
2018-08-08T06:48:07.378Z,5.20
2018-08-08T06:50:34.964Z,5.10
2018-08-08T06:53:02.535Z,5.50
2018-08-08T06:55:30.120Z,5.40
2018-08-08T06:57:58.259Z,5.57
2018-08-08T07:00:27.459Z,5.60
2018-08-08T07:02:55.021Z,5.57
2018-08-08T07:05:22.668Z,5.07
2018-08-08T07:07:52.184Z,5.17
2018-08-08T07:10:19.764Z,5.60
2018-08-08T07:12:48.594Z,5.33
2018-08-08T07:15:17.099Z,5.73
2018-08-08T07:17:44.701Z,5.87
2018-08-08T07:20:13.848Z,5.70
2018-08-08T07:22:41.588Z,5.77
2018-08-08T07:25:11.756Z,5.13
2018-08-08T07:27:39.351Z,5.33
2018-08-08T07:30:11.421Z,5.77
2018-08-08T07:32:39.943Z,5.30
2018-08-08T07:35:08.465Z,4.97
2018-08-08T07:37:36.324Z,5.10
2018-08-08T07:40:06.864Z,5.50
2018-08-08T07:42:34.412Z,4.90
2018-08-08T07:45:02.372Z,5.37
2018-08-08T07:47:29.982Z,5.30
2018-08-08T07:49:57.542Z,5.03
2018-08-08T07:52:25.121Z,5.13
2018-08-08T07:54:52.921Z,5.03
2018-08-08T07:57:20.492Z,4.33
2018-08-08T07:59:48.348Z,5.17
2018-08-08T08:02:15.890Z,4.60
2018-08-08T08:04:43.425Z,4.90
2018-08-08T08:07:11.247Z,5.17
2018-08-08T08:09:38.759Z,5.07
2018-08-08T08:12:06.324Z,4.63
2018-08-08T08:14:34.252Z,4.43
2018-08-08T08:17:03.894Z,4.43
2018-08-08T08:19:31.409Z,3.97
2018-08-08T08:21:59.261Z,4.17
2018-08-08T08:24:26.786Z,4.47
2018-08-08T08:26:54.568Z,4.43
2018-08-08T08:29:22.107Z,4.20
2018-08-08T08:31:49.676Z,4.07
2018-08-08T08:34:17.524Z,3.70
2018-08-08T08:36:45.092Z,3.83
2018-08-08T08:39:12.986Z,3.53
2018-08-08T08:41:40.566Z,3.30
2018-08-08T08:44:08.088Z,2.87
2018-08-08T08:46:35.699Z,3.60
2018-08-08T08:49:03.265Z,3.20
2018-08-08T08:51:30.931Z,3.37
2018-08-08T08:53:58.873Z,3.27
2018-08-08T08:56:26.432Z,3.10
2018-08-08T08:58:54.001Z,2.90
2018-08-08T09:01:21.781Z,2.87
2018-08-08T09:03:49.480Z,2.90
2018-08-08T09:06:17.070Z,2.80
2018-08-08T09:08:44.881Z,2.93
2018-08-08T09:11:12.429Z,2.70
2018-08-08T09:13:39.966Z,2.57
2018-08-08T09:16:07.867Z,2.83
2018-08-08T09:18:35.379Z,2.97
2018-08-08T09:21:04.185Z,2.90
2018-08-08T09:23:31.917Z,2.70
2018-08-08T09:26:00.366Z,3.17
2018-08-08T09:28:28.005Z,2.80
2018-08-08T09:30:55.647Z,2.67
2018-08-08T09:33:28.953Z,2.80
2018-08-08T09:35:56.744Z,2.87
2018-08-08T09:38:24.308Z,2.90
2018-08-08T09:40:51.891Z,2.67
2018-08-08T09:43:19.618Z,2.57
2018-08-08T09:45:47.161Z,2.70
2018-08-08T09:48:14.712Z,2.77
2018-08-08T09:50:42.494Z,2.30
2018-08-08T09:53:10.032Z,2.57
2018-08-08T09:55:37.528Z,2.40
2018-08-08T09:58:05.280Z,2.43
2018-08-08T10:00:38.555Z,2.30
2018-08-08T10:03:10.147Z,2.53
2018-08-08T10:05:38.355Z,2.50
2018-08-08T10:08:06.112Z,2.30
2018-08-08T10:10:33.665Z,2.70
2018-08-08T10:13:01.214Z,2.70
2018-08-08T10:15:28.811Z,2.43
2018-08-08T10:17:56.377Z,2.60
2018-08-08T10:20:23.930Z,2.60
2018-08-08T10:22:51.772Z,2.20
2018-08-08T10:25:19.272Z,2.13
2018-08-08T10:27:47.323Z,2.10
2018-08-08T10:30:18.484Z,1.90
2018-08-08T10:32:46.249Z,2.33
2018-08-08T10:35:13.749Z,2.13
2018-08-08T10:37:41.979Z,2.43
2018-08-08T10:40:11.089Z,2.30
2018-08-08T10:42:39.025Z,2.33
2018-08-08T10:45:07.168Z,2.30
2018-08-08T10:47:34.750Z,2.27
2018-08-08T10:50:02.773Z,2.80
2018-08-08T10:52:30.312Z,2.40
2018-08-08T10:54:57.889Z,2.40
2018-08-08T10:57:25.678Z,2.50
2018-08-08T10:59:53.238Z,2.70
2018-08-08T11:02:21.117Z,2.43
2018-08-08T11:04:48.694Z,2.27
2018-08-08T11:07:16.235Z,2.80
2018-08-08T11:09:44.202Z,2.23
2018-08-08T11:12:11.767Z,2.13
2018-08-08T11:14:39.512Z,2.00
2018-08-08T11:17:07.325Z,2.13
2018-08-08T11:19:34.882Z,1.97
2018-08-08T11:22:02.456Z,2.30
2018-08-08T11:24:30.316Z,2.40
2018-08-08T11:26:57.886Z,2.40
2018-08-08T11:29:26.006Z,2.23
2018-08-08T11:31:53.816Z,2.43
2018-08-08T11:34:21.345Z,2.57
2018-08-08T11:36:50.436Z,2.07
2018-08-08T11:39:17.977Z,2.50
2018-08-08T11:41:45.749Z,2.10
2018-08-08T11:44:13.678Z,2.10
2018-08-08T11:46:41.679Z,2.20
2018-08-08T11:49:09.243Z,2.33
2018-08-08T11:51:37.232Z,2.17
2018-08-08T11:54:05.099Z,2.40
2018-08-08T11:56:33.344Z,2.50
2018-08-08T11:59:00.914Z,2.57
2018-08-08T12:01:28.540Z,2.30
2018-08-08T12:03:56.249Z,2.50
2018-08-08T12:06:24.104Z,2.33
2018-08-08T12:08:52.376Z,2.67
2018-08-08T12:11:20.513Z,2.37
2018-08-08T12:13:48.368Z,2.53
2018-08-08T12:16:16.652Z,2.30
2018-08-08T12:18:44.584Z,2.47
2018-08-08T12:21:12.219Z,2.47
2018-08-08T12:23:40.249Z,2.73
2018-08-08T12:26:07.854Z,2.70
2018-08-08T12:28:35.509Z,2.33
2018-08-08T12:31:03.119Z,2.53
2018-08-08T12:33:30.689Z,3.23
2018-08-08T12:35:58.290Z,2.93
2018-08-08T12:38:25.897Z,2.87
2018-08-08T12:40:53.442Z,2.73
2018-08-08T12:43:20.968Z,3.53
2018-08-08T12:45:48.986Z,2.93
2018-08-08T12:48:16.671Z,3.20
2018-08-08T12:50:44.199Z,3.40
2018-08-08T12:53:12.178Z,3.10
2018-08-08T12:55:40.080Z,3.37
2018-08-08T12:58:08.282Z,4.07
2018-08-08T13:00:36.113Z,2.87
2018-08-08T13:03:04.555Z,3.27
2018-08-08T13:05:32.142Z,3.47
2018-08-08T13:08:00.214Z,3.40
2018-08-08T13:10:27.835Z,3.20
2018-08-08T13:12:55.653Z,3.57
2018-08-08T13:15:24.036Z,3.53
2018-08-08T13:17:52.038Z,3.37
2018-08-08T13:20:19.588Z,3.17
2018-08-08T13:22:47.212Z,3.53
2018-08-08T13:25:15.045Z,4.47
2018-08-08T13:27:42.637Z,5.90
2018-08-08T13:30:10.221Z,4.87
2018-08-08T13:32:38.115Z,3.93
2018-08-08T13:35:06.057Z,3.63
2018-08-08T13:37:33.621Z,3.70
2018-08-08T13:40:01.204Z,3.60
2018-08-08T13:42:28.853Z,3.50
2018-08-08T13:44:56.489Z,2.97
2018-08-08T13:47:24.341Z,2.83
2018-08-08T13:49:52.010Z,2.40
2018-08-08T13:52:19.845Z,2.70
2018-08-08T13:54:48.159Z,3.17
2018-08-08T13:57:15.954Z,4.40
2018-08-08T13:59:43.536Z,3.67
2018-08-08T14:02:11.488Z,2.90
2018-08-08T14:04:39.144Z,3.17
2018-08-08T14:07:06.804Z,2.90
2018-08-08T14:09:34.401Z,2.90
2018-08-08T14:12:02.513Z,2.60
2018-08-08T14:14:30.173Z,2.40
2018-08-08T14:16:58.751Z,2.70
2018-08-08T14:19:26.327Z,2.43
2018-08-08T14:21:54.234Z,3.47
2018-08-08T14:24:21.843Z,3.50
2018-08-08T14:26:49.401Z,2.73
2018-08-08T14:29:17.428Z,3.00
2018-08-08T14:31:44.989Z,2.63
2018-08-08T14:34:12.728Z,3.20
2018-08-08T14:36:40.302Z,2.43
2018-08-08T14:39:09.507Z,2.87
2018-08-08T14:41:37.605Z,2.73
2018-08-08T14:44:05.784Z,2.87
2018-08-08T14:46:33.372Z,2.97
2018-08-08T14:49:00.940Z,2.57
2018-08-08T14:51:28.908Z,2.80
2018-08-08T14:53:56.469Z,2.57
2018-08-08T14:56:24.100Z,2.40
2018-08-08T14:58:51.697Z,2.50
2018-08-08T15:01:19.273Z,2.67
2018-08-08T15:03:47.184Z,3.20
2018-08-08T15:06:15.393Z,2.87
2018-08-08T15:08:43.164Z,2.90
2018-08-08T15:11:11.400Z,3.50
2018-08-08T15:13:38.955Z,4.00
2018-08-08T15:16:06.529Z,3.83
2018-08-08T15:18:34.931Z,3.37
2018-08-08T15:21:02.532Z,3.13
2018-08-08T15:23:30.317Z,2.90
2018-08-08T15:25:58.593Z,2.70
2018-08-08T15:28:26.852Z,2.20
2018-08-08T15:30:55.361Z,2.37
2018-08-08T15:33:23.917Z,2.43
2018-08-08T15:35:53.028Z,2.60
2018-08-08T15:38:20.656Z,2.33
2018-08-08T15:40:48.281Z,2.10
2018-08-08T15:43:16.077Z,2.30
2018-08-08T15:45:44.693Z,1.90
2018-08-08T15:48:12.874Z,2.00
2018-08-08T15:50:40.463Z,1.70
2018-08-08T15:53:09.030Z,1.70
2018-08-08T15:55:36.713Z,1.80
2018-08-08T15:58:05.160Z,1.97
2018-08-08T16:00:33.754Z,2.00
2018-08-08T16:03:01.308Z,1.90
2018-08-08T16:05:29.021Z,1.97
2018-08-08T16:08:00.307Z,1.93
2018-08-08T16:10:29.296Z,1.90
2018-08-08T16:12:58.463Z,1.70
2018-08-08T16:15:26.557Z,1.90
2018-08-08T16:17:54.366Z,1.80
2018-08-08T16:20:24.013Z,1.97
2018-08-08T16:22:51.601Z,1.83
2018-08-08T16:25:19.481Z,1.80
2018-08-08T16:27:48.668Z,2.00
2018-08-08T16:30:55.909Z,2.10
2018-08-08T16:33:33.108Z,2.23
2018-08-08T16:36:01.128Z,1.80
2018-08-08T16:38:29.101Z,2.00
2018-08-08T16:40:56.960Z,1.90
2018-08-08T16:43:24.678Z,1.90
2018-08-08T16:45:52.551Z,1.93
2018-08-08T16:48:20.435Z,1.77
2018-08-08T16:50:47.900Z,1.93
2018-08-08T16:53:15.500Z,2.00
2018-08-08T16:55:43.047Z,2.10
2018-08-08T16:58:10.582Z,1.73
2018-08-08T17:00:38.168Z,2.17
2018-08-08T17:03:05.687Z,1.77
2018-08-08T17:05:33.452Z,1.83
2018-08-08T17:08:01.044Z,2.00
2018-08-08T17:15:29.329Z,1.93
2018-08-08T17:17:58.401Z,1.73
2018-08-08T17:21:04.926Z,2.03
2018-08-08T17:24:10.437Z,2.00
2018-08-08T17:27:16.452Z,2.17
2018-08-08T17:29:44.444Z,2.20
2018-08-08T17:32:12.698Z,2.33
2018-08-08T17:34:41.721Z,1.90
2018-08-08T17:37:10.079Z,2.00
2018-08-08T17:39:38.683Z,2.03
2018-08-08T17:42:46.136Z,1.87
2018-08-08T17:45:53.023Z,1.90
2018-08-08T17:48:59.516Z,1.80
2018-08-08T17:52:01.750Z,1.87
2018-08-08T17:54:29.415Z,2.07
2018-08-08T17:56:58.924Z,1.97
2018-08-08T17:59:26.620Z,2.20
2018-08-08T18:01:54.666Z,2.03
2018-08-08T18:04:22.656Z,2.10
2018-08-08T18:06:52.022Z,2.00
2018-08-08T18:09:20.392Z,2.40
2018-08-08T18:11:49.677Z,1.87
2018-08-08T18:14:19.542Z,2.00
2018-08-08T18:16:49.836Z,1.67
2018-08-08T18:19:17.529Z,1.80
2018-08-08T18:22:26.066Z,1.80
2018-08-08T18:25:32.128Z,2.13
2018-08-08T18:28:39.368Z,1.97
2018-08-08T18:31:08.037Z,2.30
2018-08-08T18:33:35.861Z,2.67
2018-08-08T18:36:04.200Z,2.50
2018-08-08T18:38:33.016Z,3.00
2018-08-08T18:41:01.464Z,2.90
2018-08-08T18:43:28.996Z,2.53
2018-08-08T18:45:57.863Z,2.67
2018-08-08T18:48:25.540Z,2.63
2018-08-08T18:50:56.260Z,2.70
2018-08-08T18:53:27.558Z,2.77
2018-08-08T18:55:56.077Z,2.63
2018-08-08T18:58:24.864Z,2.60
2018-08-08T19:00:52.737Z,2.50
2018-08-08T19:03:22.119Z,2.50
2018-08-08T19:05:50.248Z,2.73
2018-08-08T19:08:20.078Z,2.50
2018-08-08T19:10:48.829Z,2.93
2018-08-08T19:13:17.086Z,2.77
2018-08-08T19:15:45.242Z,2.90
2018-08-08T19:18:14.863Z,2.90
2018-08-08T19:20:45.020Z,2.70
2018-08-08T19:23:13.876Z,2.73
2018-08-08T19:25:43.094Z,2.70
2018-08-08T19:28:11.430Z,2.50
2018-08-08T19:30:39.711Z,2.63
2018-08-08T19:33:10.011Z,2.90
2018-08-08T19:35:38.289Z,2.93
2018-08-08T19:38:06.325Z,2.67
2018-08-08T19:40:36.436Z,2.67
2018-08-08T19:43:04.747Z,2.63
2018-08-08T19:45:32.529Z,3.07
2018-08-08T19:48:01.744Z,2.57
2018-08-08T19:50:29.309Z,2.73
2018-08-08T19:52:59.397Z,2.57
2018-08-08T19:55:29.087Z,2.60
2018-08-08T19:57:57.310Z,2.70
2018-08-08T20:00:28.579Z,2.87
2018-08-08T20:02:56.177Z,2.87
2018-08-08T20:05:25.091Z,3.20
2018-08-08T20:07:53.717Z,3.00
2018-08-08T20:10:21.372Z,3.13
2018-08-08T20:12:50.572Z,3.30
2018-08-08T20:15:18.691Z,3.10
2018-08-08T20:17:46.533Z,3.50
2018-08-08T20:20:15.321Z,3.20
2018-08-08T20:22:44.863Z,3.30
2018-08-08T20:25:14.104Z,3.27
2018-08-08T20:27:42.382Z,3.63
2018-08-08T20:30:29.209Z,3.13
2018-08-08T20:33:00.415Z,3.07
2018-08-08T20:36:07.484Z,3.37
2018-08-08T20:38:59.568Z,3.33
2018-08-08T20:42:05.962Z,3.30
2018-08-08T20:44:35.696Z,5.60
2018-08-08T20:47:04.362Z,5.87
2018-08-08T20:49:32.044Z,6.23
2018-08-08T20:52:02.675Z,6.40
2018-08-08T20:54:31.248Z,5.73
2018-08-08T20:56:59.075Z,4.83
2018-08-08T20:59:27.378Z,4.30
2018-08-08T21:01:55.739Z,4.00
2018-08-08T21:04:23.489Z,4.27
2018-08-08T21:06:51.605Z,4.27
2018-08-08T21:09:21.106Z,4.10
2018-08-08T21:11:52.464Z,3.77
2018-08-08T21:14:23.658Z,4.03
2018-08-08T21:16:55.648Z,3.70
2018-08-08T21:19:24.670Z,3.60
2018-08-08T21:21:53.189Z,3.50
2018-08-08T21:24:22.040Z,3.47
2018-08-08T21:26:50.255Z,4.33
2018-08-08T21:29:19.423Z,4.37
2018-08-08T21:31:48.559Z,4.63
2018-08-08T21:34:17.888Z,4.37
2018-08-08T21:36:46.886Z,4.40
2018-08-08T21:39:17.503Z,4.00
2018-08-08T21:41:46.400Z,3.50
2018-08-08T21:44:15.898Z,3.53
2018-08-08T21:46:44.877Z,3.20
2018-08-08T21:49:13.486Z,3.27
2018-08-08T21:51:42.172Z,3.20
2018-08-08T21:54:27.814Z,3.40
2018-08-08T21:57:14.846Z,3.10
2018-08-08T22:00:01.021Z,3.13
2018-08-08T22:02:46.421Z,3.07
2018-08-08T22:05:34.515Z,3.30
2018-08-08T22:08:20.258Z,3.27
2018-08-08T22:11:09.920Z,3.07
2018-08-08T22:13:55.928Z,3.17
2018-08-08T22:16:41.032Z,3.20
2018-08-08T22:19:33.403Z,3.53
2018-08-08T22:22:02.506Z,3.13
2018-08-08T22:24:30.361Z,3.53
2018-08-08T22:26:58.070Z,3.37
2018-08-08T22:29:27.596Z,3.60
2018-08-08T22:31:55.490Z,3.80
2018-08-08T22:34:23.830Z,2.90
2018-08-08T22:36:53.049Z,3.37
2018-08-08T22:39:21.871Z,3.10
2018-08-08T22:41:49.637Z,3.43
2018-08-08T22:44:17.631Z,3.30
2018-08-08T22:46:46.052Z,3.07
2018-08-08T22:49:14.556Z,3.60
2018-08-08T22:51:43.685Z,3.33
2018-08-08T22:54:11.497Z,3.13
2018-08-08T22:56:40.169Z,3.80
2018-08-08T22:59:09.884Z,3.20
2018-08-08T23:01:38.463Z,3.13
2018-08-08T23:04:06.780Z,3.13
2018-08-08T23:06:36.748Z,3.07
2018-08-08T23:09:08.003Z,2.80
2018-08-08T23:11:35.630Z,3.17
2018-08-08T23:14:05.907Z,3.57
2018-08-08T23:16:34.350Z,2.93
2018-08-08T23:19:02.919Z,3.23
2018-08-08T23:21:33.222Z,3.23
2018-08-08T23:24:04.352Z,3.33
2018-08-08T23:26:32.290Z,3.40
2018-08-08T23:29:01.247Z,3.27
2018-08-08T23:31:29.528Z,3.27
2018-08-08T23:33:57.224Z,3.37
2018-08-08T23:36:25.315Z,3.00
2018-08-08T23:38:54.089Z,3.43
2018-08-08T23:41:21.760Z,3.20
2018-08-08T23:43:49.655Z,3.50
2018-08-08T23:46:18.264Z,3.50
2018-08-08T23:48:46.021Z,3.60
2018-08-08T23:51:15.035Z,3.37
2018-08-08T23:53:42.798Z,3.50
2018-08-08T23:56:11.585Z,3.33
2018-08-08T23:58:40.558Z,3.67
